Time;durP1;ratioP1;P1;durP2;ratioP2;P2;SDS_P1;SDS_P2;PMS_P1;PMS_P2;Temp;Humidity;BMP_temperature;BMP_pressure;BME280_temperature;BME280_humidity;BME280_pressure;Samples;Min_cycle;Max_cycle;Signal;HPM_P1;HPM_P2
2021/01/04 00:01:39;;;;;;;;;;;7.50;99.90;;;;;;5042525;28;20017;-79
2021/01/04 00:04:42;;;;;;;9.93;5.78;;;7.40;99.90;;;;;;5054140;28;20424;-79
2021/01/04 00:07:17;;;;;;;8.75;5.53;;;7.40;99.90;;;;;;5044722;28;20029;-81
2021/01/04 00:10:02;;;;;;;11.02;5.53;;;7.40;99.90;;;;;;5054271;28;20096;-78
2021/01/04 00:12:39;;;;;;;9.88;5.90;;;7.40;99.90;;;;;;5054006;28;20033;-82
2021/01/04 00:15:10;;;;;;;9.52;5.57;;;7.40;99.90;;;;;;5053481;28;20040;-80
2021/01/04 00:17:51;;;;;;;10.18;4.80;;;7.40;99.90;;;;;;5044290;28;20095;-81
2021/01/04 00:20:27;;;;;;;8.25;5.82;;;7.40;99.90;;;;;;5041335;28;20013;-80
2021/01/04 00:23:04;;;;;;;6.80;4.90;;;7.40;99.90;;;;;;5054393;28;20036;-76
2021/01/04 00:25:35;;;;;;;7.82;4.60;;;7.40;99.90;;;;;;5054784;28;20032;-76
2021/01/04 00:28:08;;;;;;;12.57;5.22;;;7.40;99.90;;;;;;5054136;28;20038;-79
2021/01/04 00:30:40;;;;;;;11.05;5.72;;;7.40;99.90;;;;;;5053852;28;20029;-78
2021/01/04 00:33:14;;;;;;;6.05;4.93;;;7.40;99.90;;;;;;5053415;28;20033;-78
2021/01/04 00:35:40;;;;;;;6.68;4.85;;;7.40;99.90;;;;;;5052361;28;20021;-79
2021/01/04 00:38:23;;;;;;;6.88;5.03;;;7.40;99.90;;;;;;5053425;28;20443;-81
2021/01/04 00:41:01;;;;;;;9.57;5.13;;;7.40;99.90;;;;;;5053729;28;20143;-78
2021/01/04 00:43:49;;;;;;;8.60;5.72;;;7.40;99.90;;;;;;5053703;28;20017;-79
2021/01/04 00:46:20;;;;;;;7.70;5.38;;;7.40;99.90;;;;;;5053469;28;20404;-78
2021/01/04 00:49:18;;;;;;;9.18;5.20;;;7.40;99.90;;;;;;5053417;28;20086;-79
2021/01/04 00:52:32;;;;;;;6.88;4.70;;;7.40;99.90;;;;;;5053211;28;20033;-78
2021/01/04 00:55:16;;;;;;;6.75;5.05;;;7.40;99.90;;;;;;5036268;28;20044;-79
2021/01/04 00:58:17;;;;;;;9.20;4.68;;;7.30;99.90;;;;;;5048285;28;20105;-77
2021/01/04 01:01:36;;;;;;;8.65;5.07;;;7.40;99.90;;;;;;5053859;28;20104;-78
2021/01/04 01:04:32;;;;;;;7.80;5.18;;;7.40;99.90;;;;;;5008166;28;20034;-77
2021/01/04 01:07:13;;;;;;;8.02;5.15;;;7.40;99.90;;;;;;5053441;28;20025;-76
2021/01/04 01:09:44;;;;;;;7.30;5.00;;;7.40;99.90;;;;;;5040166;28;20478;-78
2021/01/04 01:12:19;;;;;;;6.47;4.53;;;7.40;99.90;;;;;;5052446;28;20032;-77
2021/01/04 01:15:18;;;;;;;9.98;5.28;;;7.40;99.90;;;;;;5052720;28;20043;-78
2021/01/04 01:18:02;;;;;;;7.07;5.05;;;7.50;99.90;;;;;;5050299;28;20052;-80
2021/01/04 01:20:28;;;;;;;7.65;4.57;;;7.40;99.90;;;;;;5052860;28;20021;-77
2021/01/04 01:22:54;;;;;;;7.05;4.95;;;7.50;99.90;;;;;;5052669;28;20070;-78
2021/01/04 01:25:23;;;;;;;6.97;4.88;;;7.50;99.90;;;;;;5052550;28;20021;-78
2021/01/04 01:27:52;;;;;;;8.55;5.13;;;7.40;99.90;;;;;;5052436;28;20028;-79
2021/01/04 01:30:47;;;;;;;7.72;5.28;;;7.40;99.90;;;;;;5052614;28;20409;-78
2021/01/04 01:33:34;;;;;;;8.40;4.88;;;7.40;99.90;;;;;;5052270;28;20102;-79
2021/01/04 01:36:08;;;;;;;6.13;4.65;;;7.40;99.90;;;;;;5034113;28;20094;-77
2021/01/04 01:38:50;;;;;;;7.05;4.90;;;7.40;99.90;;;;;;5052038;28;20033;-78
2021/01/04 01:41:30;;;;;;;;;;;7.40;99.90;;;;;;5052817;28;20017;-77
2021/01/04 01:44:03;;;;;;;6.47;4.45;;;7.40;99.90;;;;;;5044648;28;20008;-77
2021/01/04 01:46:38;;;;;;;6.32;4.03;;;7.40;99.90;;;;;;5051523;28;20051;-76
2021/01/04 01:49:40;;;;;;;6.63;4.50;;;7.50;99.90;;;;;;5044712;28;20021;-77
2021/01/04 01:52:19;;;;;;;5.97;4.20;;;7.50;99.90;;;;;;5049620;28;20477;-77
2021/01/04 01:55:15;;;;;;;7.82;4.53;;;7.50;99.90;;;;;;5052237;28;20021;-75
2021/01/04 01:58:08;;;;;;;4.32;3.50;;;7.60;99.90;;;;;;5046107;28;20413;-80
2021/01/04 02:00:53;;;;;;;8.07;4.10;;;7.60;99.90;;;;;;5048127;28;20017;-76
2021/01/04 02:03:47;;;;;;;4.82;3.72;;;7.60;99.90;;;;;;5051757;28;20028;-80
2021/01/04 02:06:35;;;;;;;6.95;4.20;;;7.60;99.90;;;;;;5051011;28;20017;-76
2021/01/04 02:09:11;;;;;;;5.80;3.83;;;7.60;99.90;;;;;;5052234;28;20350;-80
2021/01/04 02:12:00;;;;;;;6.53;3.47;;;7.60;99.90;;;;;;5033925;28;20025;-80
2021/01/04 02:14:43;;;;;;;6.75;4.10;;;7.70;99.90;;;;;;5038673;28;20048;-78
2021/01/04 02:17:22;;;;;;;4.82;3.53;;;7.70;99.90;;;;;;5046056;28;20174;-77
2021/01/04 02:20:10;;;;;;;3.85;3.30;;;7.70;99.90;;;;;;5051175;28;20052;-80
2021/01/04 02:22:55;;;;;;;5.78;3.22;;;7.70;99.90;;;;;;5052487;28;20500;-77
2021/01/04 02:25:21;;;;;;;4.43;3.17;;;7.70;99.90;;;;;;5034371;28;20035;-80
2021/01/04 02:27:54;;;;;;;7.47;4.00;;;7.80;99.90;;;;;;5052235;28;20398;-78
2021/01/04 02:30:20;;;;;;;5.15;3.38;;;7.80;99.90;;;;;;5052265;28;20028;-77
2021/01/04 02:32:46;;;;;;;4.25;3.25;;;7.80;99.90;;;;;;5052399;28;20385;-77
2021/01/04 02:35:12;;;;;;;4.57;3.30;;;7.80;99.90;;;;;;5052152;28;20017;-80
2021/01/04 02:37:38;;;;;;;4.38;3.33;;;7.80;99.90;;;;;;5051613;28;20120;-79
2021/01/04 02:40:08;;;;;;;10.32;3.65;;;7.80;99.90;;;;;;5051803;28;20424;-80
2021/01/04 02:42:37;;;;;;;3.88;3.20;;;7.80;99.90;;;;;;5051778;28;20032;-80
2021/01/04 02:45:25;;;;;;;8.20;3.28;;;7.80;99.90;;;;;;5052172;28;20078;-80
2021/01/04 02:48:13;;;;;;;3.55;2.67;;;7.80;99.90;;;;;;5052111;28;20045;-78
2021/01/04 02:51:06;;;;;;;7.57;2.90;;;7.70;99.90;;;;;;5052164;28;20165;-77
2021/01/04 02:53:44;;;;;;;11.30;3.08;;;7.70;99.90;;;;;;5051868;28;20017;-77
2021/01/04 02:56:31;;;;;;;5.15;3.10;;;7.70;99.90;;;;;;5052013;28;20029;-77
2021/01/04 02:59:08;;;;;;;3.47;2.70;;;7.80;99.90;;;;;;5051037;28;20064;-77
2021/01/04 03:01:56;;;;;;;3.40;2.50;;;7.70;99.90;;;;;;5050763;28;20036;-77
2021/01/04 03:04:23;;;;;;;4.50;2.88;;;7.80;99.90;;;;;;5038830;28;20029;-77
2021/01/04 03:07:09;;;;;;;6.65;2.72;;;7.80;99.90;;;;;;5051285;28;20040;-77
2021/01/04 03:09:36;;;;;;;3.33;2.67;;;7.80;99.90;;;;;;5039926;28;20112;-79
2021/01/04 03:12:09;;;;;;;3.35;2.75;;;7.80;99.90;;;;;;5033533;28;20033;-77
2021/01/04 03:14:54;;;;;;;4.00;2.80;;;7.80;99.90;;;;;;5051663;28;20021;-77
2021/01/04 03:17:41;;;;;;;3.10;2.55;;;7.80;99.90;;;;;;5032186;28;20029;-78
2021/01/04 03:20:14;;;;;;;3.65;2.83;;;7.80;99.90;;;;;;5054479;28;20025;-76
2021/01/04 03:22:39;;;;;;;3.53;2.90;;;7.80;99.90;;;;;;5055389;28;20017;-78
2021/01/04 03:25:19;;;;;;;2.60;2.40;;;7.80;99.90;;;;;;5055303;28;20029;-78
2021/01/04 03:27:45;;;;;;;3.10;2.40;;;7.80;99.90;;;;;;5054453;28;20469;-77
2021/01/04 03:30:11;;;;;;;2.72;2.33;;;7.80;99.90;;;;;;5054893;28;20031;-78
2021/01/04 03:32:38;;;;;;;4.10;3.00;;;7.80;99.90;;;;;;5054729;28;20059;-77
2021/01/04 03:35:06;;;;;;;3.17;2.72;;;7.80;99.90;;;;;;5055221;28;20033;-78
2021/01/04 03:37:32;;;;;;;6.45;2.92;;;7.90;99.90;;;;;;5052899;28;20017;-78
2021/01/04 03:39:57;;;;;;;3.17;2.70;;;7.90;99.90;;;;;;5054859;28;20549;-78
2021/01/04 03:42:23;;;;;;;5.50;3.05;;;7.90;99.90;;;;;;5055245;28;20056;-78
2021/01/04 03:44:49;;;;;;;7.80;2.92;;;7.90;99.90;;;;;;5054697;28;20492;-78
2021/01/04 03:47:16;;;;;;;5.90;2.85;;;7.90;99.90;;;;;;5054895;28;20084;-77
2021/01/04 03:49:41;;;;;;;4.95;2.80;;;7.90;99.90;;;;;;5054737;28;20048;-80
2021/01/04 03:52:07;;;;;;;4.35;3.17;;;7.90;99.90;;;;;;5054927;28;20518;-78
2021/01/04 03:54:33;;;;;;;3.22;2.70;;;7.80;99.90;;;;;;5054553;28;20025;-79
2021/01/04 03:56:58;;;;;;;2.92;2.50;;;7.80;99.90;;;;;;5054182;28;20025;-78
2021/01/04 03:59:24;;;;;;;3.67;2.60;;;7.90;99.90;;;;;;5054205;28;20040;-77
2021/01/04 04:01:51;;;;;;;5.57;2.72;;;7.80;99.90;;;;;;5054547;28;20017;-79
2021/01/04 04:04:18;;;;;;;3.90;2.42;;;7.90;99.90;;;;;;5054528;28;20422;-78
2021/01/04 04:06:44;;;;;;;4.13;2.78;;;7.90;99.90;;;;;;5054605;28;20531;-76
2021/01/04 04:09:11;;;;;;;3.42;3.00;;;7.90;99.90;;;;;;5054610;28;20033;-78
2021/01/04 04:11:37;;;;;;;3.40;2.60;;;7.90;99.90;;;;;;5054424;28;20859;-77
2021/01/04 04:14:03;;;;;;;2.97;2.40;;;7.90;99.90;;;;;;5054473;28;20036;-79
2021/01/04 04:16:30;;;;;;;3.33;2.70;;;7.90;99.90;;;;;;5054620;28;20491;-78
2021/01/04 04:18:55;;;;;;;3.13;2.83;;;7.90;99.90;;;;;;5050369;28;20505;-79
2021/01/04 04:21:21;;;;;;;4.90;2.90;;;7.90;99.90;;;;;;5044235;28;20056;-78
2021/01/04 04:23:47;;;;;;;2.88;2.40;;;7.90;99.90;;;;;;5054013;28;20029;-77
2021/01/04 04:26:21;;;;;;;3.97;2.80;;;7.90;99.90;;;;;;5054128;28;20029;-78
2021/01/04 04:28:47;;;;;;;4.70;2.92;;;7.90;99.90;;;;;;5054050;28;20048;-78
2021/01/04 04:31:14;;;;;;;3.78;2.70;;;7.90;99.90;;;;;;5053621;28;20005;-77
2021/01/04 04:33:41;;;;;;;3.83;3.13;;;7.90;99.90;;;;;;5054400;28;20104;-76
2021/01/04 04:36:08;;;;;;;3.83;2.72;;;7.90;99.90;;;;;;5054027;28;20021;-79
2021/01/04 04:38:34;;;;;;;5.82;3.25;;;7.90;99.90;;;;;;5054282;28;20029;-77
2021/01/04 04:40:59;;;;;;;4.68;3.10;;;7.90;99.90;;;;;;5054149;28;20040;-78
2021/01/04 04:43:34;;;;;;;4.47;3.60;;;7.90;99.90;;;;;;5053945;28;20104;-78
2021/01/04 04:46:03;;;;;;;3.38;2.50;;;8.00;99.90;;;;;;5048352;28;20163;-77
2021/01/04 04:48:41;;;;;;;3.60;2.72;;;7.90;99.90;;;;;;5029639;28;20080;-78
2021/01/04 04:51:37;;;;;;;5.40;3.17;;;7.90;99.90;;;;;;5030500;28;20402;-79
2021/01/04 04:54:18;;;;;;;4.25;2.92;;;7.90;99.90;;;;;;5029239;28;20037;-79
2021/01/04 04:57:30;;;;;;;4.85;3.03;;;7.90;99.90;;;;;;5029230;28;20494;-79
2021/01/04 05:00:20;;;;;;;4.25;2.95;;;8.00;99.90;;;;;;5020727;28;20056;-78
2021/01/04 05:02:58;;;;;;;4.15;2.75;;;8.00;99.90;;;;;;5030123;28;20061;-80
2021/01/04 05:05:43;;;;;;;4.72;3.33;;;8.00;99.90;;;;;;5031237;28;20467;-78
2021/01/04 05:08:45;;;;;;;3.85;2.97;;;8.00;99.90;;;;;;5053266;28;20406;-77
2021/01/04 05:11:13;;;;;;;4.03;3.08;;;8.10;99.90;;;;;;5043878;28;20046;-80
2021/01/04 05:13:44;;;;;;;3.58;2.88;;;8.10;99.90;;;;;;5053269;28;20024;-77
2021/01/04 05:16:16;;;;;;;5.38;2.97;;;8.10;99.90;;;;;;5053408;28;20033;-80
2021/01/04 05:19:04;;;;;;;5.15;3.60;;;8.10;99.90;;;;;;5034998;28;20495;-77
2021/01/04 05:21:39;;;;;;;8.20;3.15;;;8.10;99.90;;;;;;5035517;28;20074;-78
2021/01/04 05:24:39;;;;;;;5.40;3.10;;;8.10;99.90;;;;;;5052897;28;20094;-77
2021/01/04 05:27:28;;;;;;;3.70;2.97;;;8.10;99.90;;;;;;5053282;28;20355;-77
2021/01/04 05:30:34;;;;;;;3.85;3.17;;;8.10;99.90;;;;;;5048807;28;20064;-77
2021/01/04 05:33:26;;;;;;;3.97;3.10;;;8.10;99.90;;;;;;5062999;28;20353;-77
2021/01/04 05:36:05;;;;;;;5.07;3.80;;;8.10;99.90;;;;;;5046608;28;20511;-79
2021/01/04 05:38:54;;;;;;;6.35;3.90;;;8.10;99.90;;;;;;5072113;28;20302;-79
2021/01/04 05:41:28;;;;;;;3.45;3.05;;;8.10;99.90;;;;;;5026733;28;20107;-78
2021/01/04 05:44:16;;;;;;;3.78;3.25;;;8.20;99.90;;;;;;5034243;28;20033;-79
2021/01/04 05:46:52;;;;;;;7.75;3.17;;;8.20;99.90;;;;;;5034452;28;20112;-79
2021/01/04 05:49:30;;;;;;;6.13;3.67;;;8.20;99.90;;;;;;5052006;28;20037;-78
2021/01/04 05:51:57;;;;;;;4.80;3.38;;;8.20;99.90;;;;;;5051896;28;20087;-78
2021/01/04 05:54:33;;;;;;;5.90;3.33;;;8.20;99.90;;;;;;5051903;28;20024;-78
2021/01/04 05:57:12;;;;;;;5.63;3.83;;;8.20;99.90;;;;;;5051913;28;20075;-79
2021/01/04 06:00:05;;;;;;;4.68;2.90;;;8.20;99.90;;;;;;5034224;28;20041;-78
2021/01/04 06:02:34;;;;;;;7.38;3.20;;;8.10;99.90;;;;;;5061697;28;20037;-78
2021/01/04 06:05:15;;;;;;;7.35;3.40;;;8.20;99.90;;;;;;5071839;28;20024;-78
2021/01/04 06:07:44;;;;;;;4.57;3.53;;;8.20;99.90;;;;;;5065462;28;20484;-80
2021/01/04 06:10:27;;;;;;;7.05;3.78;;;8.10;99.90;;;;;;5059318;28;20070;-77
2021/01/04 06:12:53;;;;;;;4.85;3.40;;;8.20;99.90;;;;;;5068972;28;20024;-78
2021/01/04 06:15:33;;;;;;;7.00;3.53;;;8.20;99.90;;;;;;5062981;28;20078;-79
2021/01/04 06:18:09;;;;;;;4.13;3.08;;;8.20;99.90;;;;;;5043966;28;20053;-77
2021/01/04 06:20:44;;;;;;;3.17;2.80;;;8.20;99.90;;;;;;5052161;28;20025;-77
2021/01/04 06:23:34;;;;;;;6.57;3.25;;;8.20;99.90;;;;;;5051684;28;20025;-78
2021/01/04 06:26:14;;;;;;;6.80;3.60;;;8.20;99.90;;;;;;5034085;28;20025;-78
2021/01/04 06:28:50;;;;;;;5.38;3.80;;;8.10;99.90;;;;;;5033854;28;20065;-78
2021/01/04 06:31:24;;;;;;;13.65;3.40;;;8.10;99.90;;;;;;5054810;28;20028;-77
2021/01/04 06:34:03;;;;;;;5.38;3.10;;;8.00;99.90;;;;;;5054096;28;20025;-77
2021/01/04 06:36:32;;;;;;;8.05;3.92;;;8.00;99.90;;;;;;5061046;28;20025;-78
2021/01/04 06:39:08;;;;;;;3.88;3.17;;;8.00;99.90;;;;;;5051371;28;20040;-77
2021/01/04 06:41:34;;;;;;;3.85;3.30;;;8.10;99.90;;;;;;5051421;28;20021;-77
2021/01/04 06:44:29;;;;;;;4.57;3.58;;;8.00;99.90;;;;;;5060389;28;20082;-78
2021/01/04 06:47:14;;;;;;;4.85;3.28;;;8.00;99.90;;;;;;5028272;28;20119;-77
2021/01/04 06:49:56;;;;;;;5.95;3.53;;;8.00;99.90;;;;;;5049207;28;20025;-77
2021/01/04 06:52:43;;;;;;;3.80;2.75;;;8.00;99.90;;;;;;5050254;28;20049;-81
2021/01/04 06:55:42;;;;;;;3.60;3.03;;;8.00;99.90;;;;;;5053342;28;20099;-77
2021/01/04 06:58:45;;;;;;;4.07;3.35;;;8.00;99.90;;;;;;5055427;28;20456;-76
2021/01/04 07:01:29;;;;;;;;;;;8.00;99.90;;;;;;5041943;28;20492;-80
2021/01/04 07:04:30;;;;;;;6.05;3.72;;;8.00;99.90;;;;;;5055558;28;20269;-79
2021/01/04 07:07:34;;;;;;;6.50;3.65;;;8.00;99.90;;;;;;5054892;28;20044;-79
2021/01/04 07:10:21;;;;;;;6.50;3.58;;;7.90;99.90;;;;;;5054088;28;20025;-77
2021/01/04 07:12:49;;;;;;;4.55;3.17;;;7.90;99.90;;;;;;5067732;28;20066;-80
2021/01/04 07:15:31;;;;;;;5.40;3.40;;;7.90;99.90;;;;;;5067605;28;20075;-78
2021/01/04 07:18:28;;;;;;;3.42;3.10;;;7.90;99.90;;;;;;5055512;28;20028;-77
2021/01/04 07:21:25;;;;;;;9.07;3.17;;;7.90;99.90;;;;;;5055389;28;20040;-78
2021/01/04 07:24:13;;;;;;;4.18;2.95;;;7.90;99.90;;;;;;5057904;28;20507;-78
2021/01/04 07:27:03;;;;;;;6.78;2.97;;;7.90;99.90;;;;;;5022226;28;20507;-79
2021/01/04 07:29:44;;;;;;;3.95;3.38;;;8.00;99.90;;;;;;5046947;28;20462;-78
2021/01/04 07:32:17;;;;;;;3.60;2.80;;;8.00;99.90;;;;;;5056531;28;20019;-77
2021/01/04 07:34:55;;;;;;;3.13;2.60;;;7.90;99.90;;;;;;5064014;28;20028;-77
2021/01/04 07:38:07;;;;;;;5.78;4.22;;;8.00;99.90;;;;;;5063808;28;20024;-80
2021/01/04 07:40:44;;;;;;;5.00;2.85;;;7.90;99.90;;;;;;5031706;28;20560;-77
2021/01/04 07:43:26;;;;;;;5.20;3.10;;;8.00;99.90;;;;;;5061688;28;20636;-78
2021/01/04 07:46:14;;;;;;;4.32;3.28;;;7.90;99.90;;;;;;5060662;28;20020;-77
2021/01/04 07:49:01;;;;;;;3.22;2.92;;;8.00;99.90;;;;;;5057407;28;20458;-78
2021/01/04 07:51:36;;;;;;;3.10;2.45;;;8.00;99.90;;;;;;5058115;28;20041;-77
2021/01/04 07:54:39;;;;;;;3.25;2.75;;;8.00;99.90;;;;;;5060084;28;20101;-76
2021/01/04 07:57:23;;;;;;;3.75;2.65;;;8.00;99.90;;;;;;5051345;28;20350;-77
2021/01/04 08:00:07;;;;;;;2.42;2.22;;;7.90;99.90;;;;;;5058548;28;20033;-77
2021/01/04 08:03:15;;;;;;;3.05;2.50;;;7.80;99.90;;;;;;5065729;28;20033;-80
2021/01/04 08:06:22;;;;;;;3.95;2.88;;;7.80;99.90;;;;;;4984191;28;20053;-79
2021/01/04 08:08:58;;;;;;;4.32;2.80;;;7.70;99.90;;;;;;5047436;28;20124;-80
2021/01/04 08:11:33;;;;;;;2.85;2.63;;;7.70;99.90;;;;;;5065538;28;20024;-80
2021/01/04 08:14:31;;;;;;;3.15;2.85;;;7.60;99.90;;;;;;5066560;28;20020;-81
2021/01/04 08:17:17;;;;;;;3.58;2.33;;;7.60;99.90;;;;;;5064287;28;20051;-80
2021/01/04 08:19:45;;;;;;;3.45;2.78;;;7.60;99.90;;;;;;5065450;28;20100;-80
2021/01/04 08:22:39;;;;;;;7.70;2.90;;;7.50;99.90;;;;;;5059048;28;20082;-81
2021/01/04 08:25:15;;;;;;;3.53;2.75;;;7.50;99.90;;;;;;5054463;28;20025;-80
2021/01/04 08:27:47;;;;;;;2.88;2.50;;;7.50;99.90;;;;;;5053831;28;20013;-80
2021/01/04 08:30:28;;;;;;;7.35;2.70;;;7.50;99.90;;;;;;5054139;28;20386;-79
2021/01/04 08:33:15;;;;;;;5.65;3.13;;;7.40;99.90;;;;;;5054744;28;20025;-80
2021/01/04 08:35:44;;;;;;;5.32;2.90;;;7.40;99.90;;;;;;5060018;28;20020;-79
2021/01/04 08:38:19;;;;;;;3.15;2.72;;;7.40;99.90;;;;;;5074080;28;20035;-81
2021/01/04 08:41:22;;;;;;;3.58;2.92;;;7.30;99.90;;;;;;5073798;28;20044;-81
2021/01/04 08:43:51;;;;;;;4.97;2.83;;;7.30;99.90;;;;;;5055733;28;20397;-80
2021/01/04 08:46:23;;;;;;;5.60;3.15;;;7.10;99.90;;;;;;5073768;28;20052;-79
2021/01/04 08:48:51;;;;;;;3.30;2.85;;;7.10;99.90;;;;;;5073480;28;20029;-80
2021/01/04 08:51:39;;;;;;;6.88;2.80;;;7.10;99.90;;;;;;5073716;28;20066;-79
2021/01/04 08:54:11;;;;;;;3.42;3.08;;;7.10;99.90;;;;;;5055339;28;20031;-80
2021/01/04 08:56:46;;;;;;;6.60;2.88;;;7.00;99.90;;;;;;5073718;28;20031;-81
2021/01/04 08:59:21;;;;;;;4.80;3.67;;;7.00;99.90;;;;;;5073503;28;20033;-81
2021/01/04 09:01:55;;;;;;;3.53;3.03;;;6.90;99.90;;;;;;5073804;28;20052;-80
2021/01/04 09:04:38;;;;;;;5.15;3.25;;;6.90;99.90;;;;;;5055214;28;20373;-81
2021/01/04 09:07:20;;;;;;;2.88;2.58;;;6.90;99.90;;;;;;5072893;28;20119;-79
2021/01/04 09:09:59;;;;;;;4.00;2.45;;;6.90;99.90;;;;;;5045970;28;20035;-79
2021/01/04 09:12:41;;;;;;;2.90;2.40;;;6.90;99.90;;;;;;5073172;28;20028;-77
2021/01/04 09:15:07;;;;;;;4.55;2.78;;;7.00;99.90;;;;;;5058936;28;20024;-79
2021/01/04 09:17:43;;;;;;;4.22;2.55;;;6.90;99.90;;;;;;5045646;28;20041;-78
2021/01/04 09:20:19;;;;;;;3.58;3.00;;;6.90;99.90;;;;;;5039662;28;20473;-78
2021/01/04 09:22:49;;;;;;;3.83;2.42;;;6.80;99.90;;;;;;5050928;28;20021;-77
2021/01/04 09:25:28;;;;;;;5.75;2.88;;;6.90;99.90;;;;;;5051999;28;20096;-79
2021/01/04 09:27:55;;;;;;;5.43;2.50;;;6.90;99.90;;;;;;5051614;28;20040;-79
2021/01/04 09:30:26;;;;;;;7.40;2.75;;;6.90;99.90;;;;;;5055244;28;20485;-79
2021/01/04 09:33:05;;;;;;;3.38;2.88;;;7.00;99.90;;;;;;5056769;28;20481;-80
2021/01/04 09:35:31;;;;;;;5.28;2.58;;;7.00;99.90;;;;;;5056821;28;20017;-79
2021/01/04 09:38:06;;;;;;;4.18;2.85;;;7.00;99.90;;;;;;5071870;28;20464;-77
2021/01/04 09:40:33;;;;;;;6.18;2.90;;;7.00;99.90;;;;;;5071496;28;20035;-79
2021/01/04 09:43:04;;;;;;;3.70;3.10;;;7.00;99.90;;;;;;5053575;28;20499;-79
2021/01/04 09:45:30;;;;;;;7.90;2.83;;;7.00;99.90;;;;;;5057818;28;20040;-79
2021/01/04 09:48:02;;;;;;;8.55;3.10;;;7.10;99.90;;;;;;5065646;28;20032;-78
2021/01/04 09:50:31;;;;;;;2.10;1.85;;;7.10;99.90;;;;;;5030752;28;20401;-79
2021/01/04 09:53:02;;;;;;;3.63;2.25;;;7.20;99.90;;;;;;5063307;28;20107;-78
2021/01/04 09:55:35;;;;;;;2.43;2.23;;;7.10;99.90;;;;;;5066087;28;20020;-78
2021/01/04 09:58:03;;;;;;;3.00;2.47;;;7.20;99.90;;;;;;5071297;28;20033;-78
2021/01/04 10:00:33;;;;;;;6.55;2.50;;;7.30;99.90;;;;;;5070160;28;20044;-79
2021/01/04 10:03:09;;;;;;;3.13;2.28;;;7.20;99.90;;;;;;5065599;28;20473;-77
2021/01/04 10:05:38;;;;;;;2.63;2.40;;;7.20;99.90;;;;;;5071505;28;20048;-79
2021/01/04 10:08:17;;;;;;;2.30;2.10;;;7.20;99.90;;;;;;5061775;28;20440;-79
2021/01/04 10:11:01;;;;;;;2.53;2.33;;;7.20;99.90;;;;;;5057635;28;20047;-79
2021/01/04 10:13:29;;;;;;;3.30;2.50;;;7.40;99.90;;;;;;5052456;28;20009;-77
2021/01/04 10:15:57;;;;;;;5.38;2.30;;;7.50;99.90;;;;;;5052097;28;20056;-78
2021/01/04 10:18:37;;;;;;;2.92;2.30;;;7.60;99.90;;;;;;5051978;28;20029;-77
2021/01/04 10:21:04;;;;;;;2.60;2.10;;;7.60;99.90;;;;;;5056303;28;20017;-76
2021/01/04 10:23:35;;;;;;;2.42;2.00;;;7.70;99.90;;;;;;5051933;28;20052;-77
2021/01/04 10:26:03;;;;;;;2.15;1.95;;;7.70;99.90;;;;;;5051759;28;20025;-78
2021/01/04 10:28:31;;;;;;;3.58;1.95;;;7.70;99.90;;;;;;5052011;28;20028;-78
2021/01/04 10:31:17;;;;;;;2.88;1.90;;;7.80;99.90;;;;;;5051603;28;20024;-79
2021/01/04 10:33:43;;;;;;;4.20;2.17;;;7.80;99.90;;;;;;5051808;28;20033;-80
2021/01/04 10:36:19;;;;;;;3.05;2.00;;;7.80;99.90;;;;;;5043509;28;20043;-80
2021/01/04 10:39:05;;;;;;;3.13;2.28;;;7.80;99.90;;;;;;5044404;28;20033;-80
2021/01/04 10:41:34;;;;;;;5.68;2.85;;;7.70;99.90;;;;;;5054019;28;20109;-78
2021/01/04 10:44:04;;;;;;;7.35;2.92;;;7.70;99.90;;;;;;5036210;28;20033;-81
2021/01/04 10:46:39;;;;;;;3.08;2.78;;;7.70;99.90;;;;;;5058517;28;20031;-78
2021/01/04 10:49:10;;;;;;;5.65;2.75;;;7.60;99.90;;;;;;5042073;28;20041;-80
2021/01/04 10:51:49;;;;;;;3.40;2.70;;;7.50;99.90;;;;;;5046884;28;20013;-79
2021/01/04 10:54:39;;;;;;;5.05;2.70;;;7.60;99.90;;;;;;5050996;28;20033;-79
2021/01/04 10:57:26;;;;;;;7.75;2.72;;;7.60;99.90;;;;;;5043098;28;20127;-79
2021/01/04 11:00:01;;;;;;;4.35;2.63;;;7.60;99.90;;;;;;5047293;28;20473;-78
2021/01/04 11:02:47;;;;;;;5.50;2.97;;;7.70;99.90;;;;;;5050492;28;20078;-79
2021/01/04 11:05:16;;;;;;;4.90;3.17;;;7.70;99.90;;;;;;5051746;28;20110;-79
2021/01/04 11:07:43;;;;;;;3.85;3.00;;;7.70;99.90;;;;;;5051100;28;20037;-80
2021/01/04 11:10:13;;;;;;;3.78;2.80;;;7.80;99.90;;;;;;5050725;28;20100;-80
2021/01/04 11:12:49;;;;;;;3.63;2.80;;;7.90;99.90;;;;;;5050757;28;20390;-78
2021/01/04 11:15:44;;;;;;;4.72;3.00;;;8.00;99.90;;;;;;5050235;28;20013;-80
2021/01/04 11:18:12;;;;;;;4.35;2.92;;;8.10;99.90;;;;;;5031129;28;20036;-78
2021/01/04 11:20:41;;;;;;;3.33;2.50;;;8.10;99.90;;;;;;5050130;28;20035;-79
2021/01/04 11:23:11;;;;;;;2.72;2.42;;;8.20;99.90;;;;;;5053581;28;20040;-79
2021/01/04 11:25:39;;;;;;;3.22;2.22;;;8.30;99.90;;;;;;5062060;28;20086;-80
2021/01/04 11:28:04;;;;;;;6.88;2.67;;;8.40;99.90;;;;;;5058363;28;20384;-78
2021/01/04 11:30:30;;;;;;;2.97;2.60;;;8.40;99.90;;;;;;5054388;28;20033;-79
2021/01/04 11:32:58;;;;;;;4.25;2.88;;;8.60;99.90;;;;;;5060621;28;20300;-78
2021/01/04 11:35:23;;;;;;;3.45;2.33;;;8.60;99.90;;;;;;5069219;28;20009;-79
2021/01/04 11:37:51;;;;;;;5.18;2.08;;;8.70;99.90;;;;;;5057290;28;20051;-79
2021/01/04 11:40:17;;;;;;;3.33;2.30;;;8.80;99.90;;;;;;5055294;28;20025;-79
2021/01/04 11:42:43;;;;;;;2.00;1.80;;;8.80;99.90;;;;;;5060186;28;20484;-80
2021/01/04 11:45:14;;;;;;;31.13;11.40;;;8.80;99.90;;;;;;5062953;28;20064;-80
2021/01/04 11:47:39;;;;;;;13.68;7.70;;;8.80;99.90;;;;;;5053733;28;20025;-80
2021/01/04 11:50:07;;;;;;;9.15;6.20;;;8.80;99.90;;;;;;5060747;28;20032;-78
2021/01/04 11:52:34;;;;;;;6.30;4.55;;;8.80;99.90;;;;;;5055537;28;20086;-77
2021/01/04 11:55:00;;;;;;;7.45;3.80;;;8.80;99.90;;;;;;5063801;28;20020;-79
2021/01/04 11:57:26;;;;;;;10.18;4.68;;;8.80;99.90;;;;;;5043988;28;20329;-79
2021/01/04 11:59:51;;;;;;;5.88;2.80;;;8.80;99.90;;;;;;5065821;28;20393;-78
2021/01/04 12:02:17;;;;;;;5.30;2.85;;;8.80;99.90;;;;;;5072243;28;20028;-79
2021/01/04 12:04:44;;;;;;;3.38;3.00;;;8.80;99.90;;;;;;5054655;28;20036;-80
2021/01/04 12:07:11;;;;;;;4.07;3.67;;;8.80;99.90;;;;;;5052923;28;20056;-79
2021/01/04 12:09:38;;;;;;;4.72;4.15;;;8.90;99.90;;;;;;5051072;28;20098;-78
2021/01/04 12:12:07;;;;;;;7.75;4.35;;;8.80;99.90;;;;;;5055397;28;20038;-79
2021/01/04 12:14:33;;;;;;;3.35;2.78;;;8.90;99.90;;;;;;5058795;28;20076;-80
2021/01/04 12:17:05;;;;;;;6.30;2.08;;;8.90;99.90;;;;;;5029635;28;20024;-79
2021/01/04 12:19:31;;;;;;;4.78;2.78;;;8.80;99.90;;;;;;5059300;28;20086;-78
2021/01/04 12:22:06;;;;;;;5.53;4.10;;;8.80;99.90;;;;;;5066678;28;20032;-78
2021/01/04 12:24:35;;;;;;;10.07;5.15;;;8.70;99.90;;;;;;5067229;28;20016;-78
2021/01/04 12:27:06;;;;;;;9.68;3.55;;;8.60;99.90;;;;;;5066488;28;20048;-78
2021/01/04 12:29:36;;;;;;;9.52;2.90;;;8.60;99.90;;;;;;5065607;28;20056;-78
2021/01/04 12:32:02;;;;;;;5.07;2.83;;;8.60;99.90;;;;;;5056456;28;20017;-77
2021/01/04 12:34:28;;;;;;;5.75;2.60;;;8.60;99.90;;;;;;5052838;28;20029;-79
2021/01/04 12:36:54;;;;;;;11.73;8.05;;;8.50;99.90;;;;;;5051134;28;20435;-79
2021/01/04 12:39:19;;;;;;;7.30;5.35;;;8.50;99.90;;;;;;5063320;28;20032;-77
2021/01/04 12:41:45;;;;;;;11.10;3.85;;;8.50;99.90;;;;;;5065801;28;20028;-78
2021/01/04 12:44:13;;;;;;;8.25;5.78;;;8.50;99.90;;;;;;5061028;28;20033;-77
2021/01/04 12:46:43;;;;;;;8.40;5.97;;;8.50;99.90;;;;;;5055452;28;20547;-77
2021/01/04 12:49:09;;;;;;;7.32;4.50;;;8.50;99.90;;;;;;5051718;28;20021;-77
2021/01/04 12:51:34;;;;;;;6.85;3.97;;;8.50;99.90;;;;;;5052037;28;20105;-78
2021/01/04 12:54:03;;;;;;;3.88;2.90;;;8.50;99.90;;;;;;5052390;28;20039;-79
2021/01/04 12:56:29;;;;;;;6.05;3.05;;;8.50;99.90;;;;;;5052267;28;20052;-78
2021/01/04 12:58:55;;;;;;;3.65;2.80;;;8.50;99.90;;;;;;5055049;28;20063;-78
2021/01/04 13:01:21;;;;;;;3.70;2.65;;;8.50;99.90;;;;;;5058390;28;20419;-80
2021/01/04 13:03:46;;;;;;;4.68;3.20;;;8.50;99.90;;;;;;5062613;28;20032;-79
2021/01/04 13:06:22;;;;;;;6.10;2.72;;;8.60;99.90;;;;;;5056568;28;20128;-77
2021/01/04 13:08:48;;;;;;;4.00;2.97;;;8.60;99.90;;;;;;5052811;28;20020;-78
2021/01/04 13:11:15;;;;;;;4.45;2.65;;;8.60;99.90;;;;;;5066151;28;20024;-78
2021/01/04 13:13:40;;;;;;;5.95;3.30;;;8.60;99.90;;;;;;5052529;28;20065;-78
2021/01/04 13:16:06;;;;;;;5.70;3.58;;;8.70;99.90;;;;;;5060097;28;20117;-78
2021/01/04 13:18:31;;;;;;;4.13;3.40;;;8.60;99.90;;;;;;5064413;28;20024;-78
2021/01/04 13:20:57;;;;;;;9.80;2.80;;;8.70;99.90;;;;;;5062114;28;20023;-78
2021/01/04 13:23:23;;;;;;;5.78;2.72;;;8.70;99.90;;;;;;5039846;28;20029;-77
2021/01/04 13:25:49;;;;;;;4.38;3.50;;;8.70;99.90;;;;;;5056281;28;20027;-79
2021/01/04 13:28:14;;;;;;;8.60;4.53;;;8.70;99.90;;;;;;5053140;28;20029;-77
2021/01/04 13:30:40;;;;;;;6.10;3.08;;;8.70;99.90;;;;;;5061994;28;20075;-78
2021/01/04 13:33:06;;;;;;;11.60;4.32;;;8.70;99.90;;;;;;5056206;28;20013;-78
2021/01/04 13:35:31;;;;;;;5.55;3.60;;;8.70;99.90;;;;;;5058413;28;20433;-77
2021/01/04 13:37:57;;;;;;;8.68;3.53;;;8.70;99.90;;;;;;5053065;28;20473;-78
2021/01/04 13:40:23;;;;;;;6.22;3.63;;;8.70;99.90;;;;;;5063996;28;20056;-79
2021/01/04 13:42:48;;;;;;;5.85;4.00;;;8.70;99.90;;;;;;5054108;28;20485;-78
2021/01/04 13:45:14;;;;;;;4.80;3.78;;;8.70;99.90;;;;;;5030069;28;20079;-79